sensor_id;sensor_type;location;lat;lon;timestamp;P1;durP1;ratioP1;P2;durP2;ratioP2
71626;SDS011;59475;52.464;13.590;2023-08-07T00:00:17;3.75;;;2.63;;
71626;SDS011;59475;52.464;13.590;2023-08-07T00:02:42;4.10;;;2.50;;
71626;SDS011;59475;52.464;13.590;2023-08-07T00:05:08;4.47;;;2.53;;
71626;SDS011;59475;52.464;13.590;2023-08-07T00:07:33;2.80;;;2.35;;
71626;SDS011;59475;52.464;13.590;2023-08-07T00:09:59;2.57;;;2.37;;
71626;SDS011;59475;52.464;13.590;2023-08-07T00:12:26;3.78;;;2.00;;
71626;SDS011;59475;52.464;13.590;2023-08-07T00:14:52;4.10;;;2.33;;
71626;SDS011;59475;52.464;13.590;2023-08-07T00:17:17;3.58;;;2.60;;
71626;SDS011;59475;52.464;13.590;2023-08-07T00:19:43;3.73;;;2.40;;
71626;SDS011;59475;52.464;13.590;2023-08-07T00:22:08;3.73;;;2.27;;
71626;SDS011;59475;52.464;13.590;2023-08-07T00:24:34;5.33;;;2.20;;
71626;SDS011;59475;52.464;13.590;2023-08-07T00:27:00;4.30;;;2.40;;
71626;SDS011;59475;52.464;13.590;2023-08-07T00:29:25;3.40;;;2.40;;
71626;SDS011;59475;52.464;13.590;2023-08-07T00:31:51;4.97;;;2.45;;
71626;SDS011;59475;52.464;13.590;2023-08-07T00:34:16;4.30;;;2.40;;
71626;SDS011;59475;52.464;13.590;2023-08-07T00:36:41;3.40;;;2.67;;
71626;SDS011;59475;52.464;13.590;2023-08-07T00:39:07;3.53;;;2.47;;
71626;SDS011;59475;52.464;13.590;2023-08-07T00:41:33;3.38;;;2.50;;
71626;SDS011;59475;52.464;13.590;2023-08-07T00:43:59;5.73;;;2.50;;
71626;SDS011;59475;52.464;13.590;2023-08-07T00:46:24;4.03;;;2.50;;
71626;SDS011;59475;52.464;13.590;2023-08-07T00:48:51;4.73;;;2.87;;
71626;SDS011;59475;52.464;13.590;2023-08-07T00:51:17;4.55;;;3.35;;
71626;SDS011;59475;52.464;13.590;2023-08-07T00:53:43;4.03;;;2.87;;
71626;SDS011;59475;52.464;13.590;2023-08-07T00:56:08;4.15;;;2.63;;
71626;SDS011;59475;52.464;13.590;2023-08-07T00:58:34;4.33;;;2.73;;
71626;SDS011;59475;52.464;13.590;2023-08-07T01:00:59;4.13;;;2.83;;
71626;SDS011;59475;52.464;13.590;2023-08-07T01:03:25;5.07;;;2.90;;
71626;SDS011;59475;52.464;13.590;2023-08-07T01:05:50;4.27;;;2.83;;
71626;SDS011;59475;52.464;13.590;2023-08-07T01:08:16;5.20;;;2.63;;
71626;SDS011;59475;52.464;13.590;2023-08-07T01:13:28;4.75;;;2.97;;
71626;SDS011;59475;52.464;13.590;2023-08-07T01:15:59;3.95;;;2.90;;
71626;SDS011;59475;52.464;13.590;2023-08-07T01:18:32;3.97;;;2.77;;
71626;SDS011;59475;52.464;13.590;2023-08-07T01:20:59;4.00;;;2.78;;
71626;SDS011;59475;52.464;13.590;2023-08-07T01:23:25;6.18;;;2.67;;
71626;SDS011;59475;52.464;13.590;2023-08-07T01:25:50;3.73;;;2.93;;
71626;SDS011;59475;52.464;13.590;2023-08-07T01:28:32;5.70;;;3.20;;
71626;SDS011;59475;52.464;13.590;2023-08-07T01:31:03;5.63;;;3.00;;
71626;SDS011;59475;52.464;13.590;2023-08-07T01:33:40;6.10;;;2.67;;
71626;SDS011;59475;52.464;13.590;2023-08-07T01:36:18;6.90;;;3.80;;
71626;SDS011;59475;52.464;13.590;2023-08-07T01:38:44;7.63;;;2.65;;
71626;SDS011;59475;52.464;13.590;2023-08-07T01:41:13;5.47;;;2.97;;
71626;SDS011;59475;52.464;13.590;2023-08-07T01:43:38;7.10;;;3.10;;
71626;SDS011;59475;52.464;13.590;2023-08-07T01:46:04;3.33;;;2.80;;
71626;SDS011;59475;52.464;13.590;2023-08-07T01:48:31;3.88;;;3.00;;
71626;SDS011;59475;52.464;13.590;2023-08-07T01:50:56;4.43;;;3.13;;
71626;SDS011;59475;52.464;13.590;2023-08-07T01:53:22;4.68;;;2.65;;
71626;SDS011;59475;52.464;13.590;2023-08-07T01:55:47;5.47;;;2.83;;
71626;SDS011;59475;52.464;13.590;2023-08-07T01:58:13;5.50;;;3.07;;
71626;SDS011;59475;52.464;13.590;2023-08-07T02:00:38;6.80;;;3.10;;
71626;SDS011;59475;52.464;13.590;2023-08-07T02:03:03;3.87;;;2.67;;
71626;SDS011;59475;52.464;13.590;2023-08-07T02:05:29;8.00;;;3.43;;
71626;SDS011;59475;52.464;13.590;2023-08-07T02:07:54;5.03;;;3.20;;
71626;SDS011;59475;52.464;13.590;2023-08-07T02:10:21;5.13;;;3.45;;
71626;SDS011;59475;52.464;13.590;2023-08-07T02:12:47;4.27;;;3.17;;
71626;SDS011;59475;52.464;13.590;2023-08-07T02:15:13;6.57;;;2.88;;
71626;SDS011;59475;52.464;13.590;2023-08-07T02:17:38;5.40;;;3.30;;
71626;SDS011;59475;52.464;13.590;2023-08-07T02:20:06;8.95;;;3.28;;
71626;SDS011;59475;52.464;13.590;2023-08-07T02:22:32;4.40;;;3.40;;
71626;SDS011;59475;52.464;13.590;2023-08-07T02:24:57;7.50;;;3.20;;
71626;SDS011;59475;52.464;13.590;2023-08-07T02:27:22;6.70;;;3.90;;
71626;SDS011;59475;52.464;13.590;2023-08-07T02:29:48;6.70;;;3.23;;
71626;SDS011;59475;52.464;13.590;2023-08-07T02:32:13;4.90;;;3.30;;
71626;SDS011;59475;52.464;13.590;2023-08-07T02:34:39;6.68;;;3.70;;
71626;SDS011;59475;52.464;13.590;2023-08-07T02:37:04;6.00;;;4.57;;
71626;SDS011;59475;52.464;13.590;2023-08-07T02:39:29;10.00;;;4.10;;
71626;SDS011;59475;52.464;13.590;2023-08-07T02:41:55;6.47;;;4.07;;
71626;SDS011;59475;52.464;13.590;2023-08-07T02:44:20;8.47;;;4.47;;
71626;SDS011;59475;52.464;13.590;2023-08-07T02:46:46;10.38;;;4.95;;
71626;SDS011;59475;52.464;13.590;2023-08-07T02:49:11;9.47;;;5.17;;
71626;SDS011;59475;52.464;13.590;2023-08-07T02:51:37;9.23;;;6.13;;
71626;SDS011;59475;52.464;13.590;2023-08-07T02:54:02;8.67;;;6.87;;
71626;SDS011;59475;52.464;13.590;2023-08-07T02:56:27;10.93;;;6.90;;
71626;SDS011;59475;52.464;13.590;2023-08-07T02:58:53;11.60;;;6.87;;
71626;SDS011;59475;52.464;13.590;2023-08-07T03:01:19;8.60;;;6.33;;
71626;SDS011;59475;52.464;13.590;2023-08-07T03:03:46;12.80;;;7.10;;
71626;SDS011;59475;52.464;13.590;2023-08-07T03:06:11;11.50;;;6.87;;
71626;SDS011;59475;52.464;13.590;2023-08-07T03:08:36;11.07;;;7.97;;
71626;SDS011;59475;52.464;13.590;2023-08-07T03:14:23;10.00;;;6.75;;
71626;SDS011;59475;52.464;13.590;2023-08-07T03:16:49;10.13;;;7.00;;
71626;SDS011;59475;52.464;13.590;2023-08-07T03:19:14;11.47;;;6.83;;
71626;SDS011;59475;52.464;13.590;2023-08-07T03:21:40;9.10;;;7.07;;
71626;SDS011;59475;52.464;13.590;2023-08-07T03:24:05;8.87;;;6.50;;
71626;SDS011;59475;52.464;13.590;2023-08-07T03:26:30;12.98;;;6.45;;
71626;SDS011;59475;52.464;13.590;2023-08-07T03:28:56;10.27;;;5.70;;
71626;SDS011;59475;52.464;13.590;2023-08-07T03:31:21;14.97;;;7.67;;
71626;SDS011;59475;52.464;13.590;2023-08-07T03:33:47;10.77;;;5.47;;
71626;SDS011;59475;52.464;13.590;2023-08-07T03:36:12;8.10;;;5.37;;
71626;SDS011;59475;52.464;13.590;2023-08-07T03:38:37;7.57;;;5.30;;
71626;SDS011;59475;52.464;13.590;2023-08-07T03:41:03;7.77;;;5.47;;
71626;SDS011;59475;52.464;13.590;2023-08-07T03:43:28;11.70;;;5.20;;
71626;SDS011;59475;52.464;13.590;2023-08-07T03:45:54;7.90;;;5.10;;
71626;SDS011;59475;52.464;13.590;2023-08-07T03:48:23;9.60;;;5.20;;
71626;SDS011;59475;52.464;13.590;2023-08-07T03:50:48;9.23;;;5.33;;
71626;SDS011;59475;52.464;13.590;2023-08-07T03:53:14;8.80;;;5.33;;
71626;SDS011;59475;52.464;13.590;2023-08-07T03:55:39;7.47;;;5.20;;
71626;SDS011;59475;52.464;13.590;2023-08-07T03:58:06;8.88;;;4.55;;
71626;SDS011;59475;52.464;13.590;2023-08-07T04:00:32;7.10;;;4.70;;
71626;SDS011;59475;52.464;13.590;2023-08-07T04:02:57;11.23;;;5.23;;
71626;SDS011;59475;52.464;13.590;2023-08-07T04:05:23;9.20;;;4.93;;
71626;SDS011;59475;52.464;13.590;2023-08-07T04:07:48;6.50;;;4.80;;
71626;SDS011;59475;52.464;13.590;2023-08-07T04:10:14;8.87;;;4.93;;
71626;SDS011;59475;52.464;13.590;2023-08-07T04:12:39;7.67;;;4.27;;
71626;SDS011;59475;52.464;13.590;2023-08-07T04:15:05;8.87;;;4.80;;
71626;SDS011;59475;52.464;13.590;2023-08-07T04:17:31;9.55;;;5.20;;
71626;SDS011;59475;52.464;13.590;2023-08-07T04:19:57;8.13;;;4.78;;
71626;SDS011;59475;52.464;13.590;2023-08-07T04:22:22;8.83;;;4.63;;
71626;SDS011;59475;52.464;13.590;2023-08-07T04:24:48;6.37;;;4.70;;
71626;SDS011;59475;52.464;13.590;2023-08-07T04:27:13;8.53;;;4.47;;
71626;SDS011;59475;52.464;13.590;2023-08-07T04:29:38;9.17;;;4.90;;
71626;SDS011;59475;52.464;13.590;2023-08-07T04:32:04;7.55;;;5.30;;
71626;SDS011;59475;52.464;13.590;2023-08-07T04:34:30;6.47;;;4.57;;
71626;SDS011;59475;52.464;13.590;2023-08-07T04:36:55;8.23;;;5.07;;
71626;SDS011;59475;52.464;13.590;2023-08-07T04:39:21;6.43;;;4.17;;
71626;SDS011;59475;52.464;13.590;2023-08-07T04:41:47;7.25;;;4.43;;
71626;SDS011;59475;52.464;13.590;2023-08-07T04:44:15;5.40;;;3.70;;
71626;SDS011;59475;52.464;13.590;2023-08-07T04:46:40;5.65;;;4.03;;
71626;SDS011;59475;52.464;13.590;2023-08-07T04:49:06;10.90;;;5.03;;
71626;SDS011;59475;52.464;13.590;2023-08-07T04:51:32;8.32;;;3.85;;
71626;SDS011;59475;52.464;13.590;2023-08-07T04:53:57;5.43;;;3.47;;
71626;SDS011;59475;52.464;13.590;2023-08-07T04:56:23;5.33;;;4.00;;
71626;SDS011;59475;52.464;13.590;2023-08-07T04:58:48;5.63;;;3.90;;
71626;SDS011;59475;52.464;13.590;2023-08-07T05:01:14;5.18;;;3.50;;
71626;SDS011;59475;52.464;13.590;2023-08-07T05:03:39;5.80;;;3.30;;
71626;SDS011;59475;52.464;13.590;2023-08-07T05:06:04;5.90;;;4.30;;
71626;SDS011;59475;52.464;13.590;2023-08-07T05:08:30;8.13;;;3.80;;
71626;SDS011;59475;52.464;13.590;2023-08-07T05:10:56;7.22;;;3.75;;
71626;SDS011;59475;52.464;13.590;2023-08-07T05:13:21;7.63;;;3.77;;
71626;SDS011;59475;52.464;13.590;2023-08-07T05:15:47;7.93;;;3.55;;
71626;SDS011;59475;52.464;13.590;2023-08-07T05:18:13;6.87;;;3.10;;
71626;SDS011;59475;52.464;13.590;2023-08-07T05:20:39;4.18;;;3.20;;
71626;SDS011;59475;52.464;13.590;2023-08-07T05:23:04;7.17;;;3.37;;
71626;SDS011;59475;52.464;13.590;2023-08-07T05:25:30;7.40;;;3.30;;
71626;SDS011;59475;52.464;13.590;2023-08-07T05:27:55;6.57;;;3.10;;
71626;SDS011;59475;52.464;13.590;2023-08-07T05:30:21;5.13;;;3.50;;
71626;SDS011;59475;52.464;13.590;2023-08-07T05:32:46;5.23;;;3.07;;
71626;SDS011;59475;52.464;13.590;2023-08-07T05:35:11;7.40;;;3.07;;
71626;SDS011;59475;52.464;13.590;2023-08-07T05:37:37;4.03;;;2.97;;
71626;SDS011;59475;52.464;13.590;2023-08-07T05:40:03;5.57;;;2.83;;
71626;SDS011;59475;52.464;13.590;2023-08-07T05:42:29;6.30;;;2.92;;
71626;SDS011;59475;52.464;13.590;2023-08-07T05:44:54;4.77;;;3.13;;
71626;SDS011;59475;52.464;13.590;2023-08-07T05:47:19;3.60;;;2.83;;
71626;SDS011;59475;52.464;13.590;2023-08-07T05:49:45;4.63;;;2.57;;
71626;SDS011;59475;52.464;13.590;2023-08-07T05:55:32;6.38;;;2.75;;
71626;SDS011;59475;52.464;13.590;2023-08-07T05:57:57;6.03;;;2.70;;
71626;SDS011;59475;52.464;13.590;2023-08-07T06:00:23;5.10;;;2.60;;
71626;SDS011;59475;52.464;13.590;2023-08-07T06:06:10;6.65;;;3.40;;
71626;SDS011;59475;52.464;13.590;2023-08-07T06:08:35;5.60;;;3.30;;
71626;SDS011;59475;52.464;13.590;2023-08-07T06:11:00;6.37;;;2.87;;
71626;SDS011;59475;52.464;13.590;2023-08-07T06:13:28;4.50;;;2.85;;
71626;SDS011;59475;52.464;13.590;2023-08-07T06:15:54;3.75;;;3.03;;
71626;SDS011;59475;52.464;13.590;2023-08-07T06:18:19;7.57;;;3.10;;
71626;SDS011;59475;52.464;13.590;2023-08-07T06:20:45;6.27;;;2.90;;
71626;SDS011;59475;52.464;13.590;2023-08-07T06:23:10;7.93;;;3.60;;
71626;SDS011;59475;52.464;13.590;2023-08-07T06:25:35;3.55;;;2.60;;
71626;SDS011;59475;52.464;13.590;2023-08-07T06:28:01;5.23;;;3.43;;
71626;SDS011;59475;52.464;13.590;2023-08-07T06:30:26;3.37;;;2.80;;
71626;SDS011;59475;52.464;13.590;2023-08-07T06:32:51;4.17;;;2.47;;
71626;SDS011;59475;52.464;13.590;2023-08-07T06:35:17;5.77;;;2.70;;
71626;SDS011;59475;52.464;13.590;2023-08-07T06:37:42;3.07;;;2.70;;
71626;SDS011;59475;52.464;13.590;2023-08-07T06:40:08;5.10;;;2.35;;
71626;SDS011;59475;52.464;13.590;2023-08-07T06:42:34;3.93;;;2.60;;
71626;SDS011;59475;52.464;13.590;2023-08-07T06:45:00;3.67;;;2.73;;
71626;SDS011;59475;52.464;13.590;2023-08-07T06:47:25;8.17;;;2.40;;
71626;SDS011;59475;52.464;13.590;2023-08-07T06:49:50;4.87;;;2.30;;
71626;SDS011;59475;52.464;13.590;2023-08-07T06:52:16;3.97;;;2.47;;
71626;SDS011;59475;52.464;13.590;2023-08-07T06:54:41;2.60;;;1.60;;
71626;SDS011;59475;52.464;13.590;2023-08-07T06:57:06;4.27;;;1.93;;
71626;SDS011;59475;52.464;13.590;2023-08-07T06:59:32;3.23;;;2.00;;
71626;SDS011;59475;52.464;13.590;2023-08-07T07:01:57;4.55;;;2.20;;
71626;SDS011;59475;52.464;13.590;2023-08-07T07:04:22;3.87;;;1.87;;
71626;SDS011;59475;52.464;13.590;2023-08-07T07:06:48;5.28;;;2.10;;
71626;SDS011;59475;52.464;13.590;2023-08-07T07:09:14;4.43;;;2.03;;
71626;SDS011;59475;52.464;13.590;2023-08-07T07:11:41;3.25;;;2.10;;
71626;SDS011;59475;52.464;13.590;2023-08-07T07:14:07;7.33;;;2.03;;
71626;SDS011;59475;52.464;13.590;2023-08-07T07:16:33;2.63;;;1.83;;
71626;SDS011;59475;52.464;13.590;2023-08-07T07:18:58;2.60;;;2.10;;
71626;SDS011;59475;52.464;13.590;2023-08-07T07:21:24;3.22;;;1.77;;
71626;SDS011;59475;52.464;13.590;2023-08-07T07:27:12;3.40;;;1.90;;
71626;SDS011;59475;52.464;13.590;2023-08-07T07:29:37;3.90;;;1.70;;
71626;SDS011;59475;52.464;13.590;2023-08-07T07:32:02;4.23;;;1.80;;
71626;SDS011;59475;52.464;13.590;2023-08-07T07:34:28;4.43;;;1.73;;
71626;SDS011;59475;52.464;13.590;2023-08-07T07:36:53;3.17;;;1.90;;
71626;SDS011;59475;52.464;13.590;2023-08-07T07:39:19;2.90;;;1.80;;
71626;SDS011;59475;52.464;13.590;2023-08-07T07:41:45;5.22;;;1.85;;
71626;SDS011;59475;52.464;13.590;2023-08-07T07:47:31;1.98;;;1.58;;
71626;SDS011;59475;52.464;13.590;2023-08-07T07:50:06;2.33;;;1.70;;
71626;SDS011;59475;52.464;13.590;2023-08-07T07:52:33;3.47;;;1.92;;
71626;SDS011;59475;52.464;13.590;2023-08-07T07:54:58;9.53;;;2.00;;
71626;SDS011;59475;52.464;13.590;2023-08-07T07:57:24;4.10;;;1.50;;
71626;SDS011;59475;52.464;13.590;2023-08-07T07:59:49;8.07;;;2.20;;
71626;SDS011;59475;52.464;13.590;2023-08-07T08:02:15;4.47;;;1.93;;
71626;SDS011;59475;52.464;13.590;2023-08-07T08:08:02;5.17;;;1.77;;
71626;SDS011;59475;52.464;13.590;2023-08-07T08:10:28;4.35;;;1.85;;
71626;SDS011;59475;52.464;13.590;2023-08-07T08:12:56;3.37;;;1.83;;
71626;SDS011;59475;52.464;13.590;2023-08-07T08:15:22;3.17;;;2.00;;
71626;SDS011;59475;52.464;13.590;2023-08-07T08:17:47;4.20;;;1.70;;
71626;SDS011;59475;52.464;13.590;2023-08-07T08:20:13;2.95;;;1.75;;
71626;SDS011;59475;52.464;13.590;2023-08-07T08:22:40;4.80;;;2.00;;
71626;SDS011;59475;52.464;13.590;2023-08-07T08:25:06;3.37;;;1.83;;
71626;SDS011;59475;52.464;13.590;2023-08-07T08:27:32;2.88;;;1.63;;
71626;SDS011;59475;52.464;13.590;2023-08-07T08:29:57;2.83;;;1.87;;
71626;SDS011;59475;52.464;13.590;2023-08-07T08:35:44;3.30;;;1.58;;
71626;SDS011;59475;52.464;13.590;2023-08-07T08:41:31;2.88;;;1.60;;
71626;SDS011;59475;52.464;13.590;2023-08-07T08:43:57;4.23;;;2.43;;
71626;SDS011;59475;52.464;13.590;2023-08-07T08:49:46;2.22;;;2.03;;
71626;SDS011;59475;52.464;13.590;2023-08-07T08:52:14;6.32;;;2.15;;
71626;SDS011;59475;52.464;13.590;2023-08-07T08:58:02;2.27;;;1.53;;
71626;SDS011;59475;52.464;13.590;2023-08-07T09:00:28;2.55;;;2.00;;
71626;SDS011;59475;52.464;13.590;2023-08-07T09:02:55;3.72;;;2.63;;
71626;SDS011;59475;52.464;13.590;2023-08-07T09:05:20;2.70;;;2.10;;
71626;SDS011;59475;52.464;13.590;2023-08-07T09:11:08;4.38;;;1.90;;
71626;SDS011;59475;52.464;13.590;2023-08-07T09:16:55;5.30;;;1.60;;
71626;SDS011;59475;52.464;13.590;2023-08-07T09:19:23;2.00;;;1.67;;
71626;SDS011;59475;52.464;13.590;2023-08-07T09:21:49;3.90;;;1.83;;
71626;SDS011;59475;52.464;13.590;2023-08-07T09:24:14;4.13;;;2.00;;
71626;SDS011;59475;52.464;13.590;2023-08-07T09:26:43;3.28;;;1.85;;
71626;SDS011;59475;52.464;13.590;2023-08-07T09:29:09;2.20;;;1.60;;
71626;SDS011;59475;52.464;13.590;2023-08-07T09:34:56;4.40;;;1.73;;
71626;SDS011;59475;52.464;13.590;2023-08-07T09:37:25;5.05;;;2.05;;
71626;SDS011;59475;52.464;13.590;2023-08-07T09:39:50;3.20;;;2.40;;
71626;SDS011;59475;52.464;13.590;2023-08-07T09:42:16;4.03;;;2.40;;
71626;SDS011;59475;52.464;13.590;2023-08-07T09:48:04;4.47;;;2.50;;
71626;SDS011;59475;52.464;13.590;2023-08-07T09:53:53;2.50;;;1.90;;
71626;SDS011;59475;52.464;13.590;2023-08-07T09:56:18;4.00;;;2.00;;
71626;SDS011;59475;52.464;13.590;2023-08-07T09:58:46;4.60;;;1.90;;
71626;SDS011;59475;52.464;13.590;2023-08-07T10:04:34;4.53;;;2.30;;
71626;SDS011;59475;52.464;13.590;2023-08-07T10:07:01;3.40;;;1.70;;
71626;SDS011;59475;52.464;13.590;2023-08-07T10:12:48;3.20;;;1.50;;
71626;SDS011;59475;52.464;13.590;2023-08-07T10:18:35;3.80;;;1.63;;
71626;SDS011;59475;52.464;13.590;2023-08-07T10:24:23;2.05;;;1.42;;
71626;SDS011;59475;52.464;13.590;2023-08-07T10:30:10;3.58;;;1.48;;
71626;SDS011;59475;52.464;13.590;2023-08-07T10:32:39;1.73;;;1.40;;
71626;SDS011;59475;52.464;13.590;2023-08-07T10:38:27;2.60;;;1.70;;
71626;SDS011;59475;52.464;13.590;2023-08-07T10:41:05;3.30;;;1.60;;
71626;SDS011;59475;52.464;13.590;2023-08-07T10:43:39;3.47;;;1.40;;
71626;SDS011;59475;52.464;13.590;2023-08-07T10:46:08;2.28;;;1.30;;
71626;SDS011;59475;52.464;13.590;2023-08-07T10:51:57;3.42;;;1.27;;
71626;SDS011;59475;52.464;13.590;2023-08-07T10:54:23;4.23;;;1.33;;
71626;SDS011;59475;52.464;13.590;2023-08-07T10:56:52;1.98;;;1.10;;
71626;SDS011;59475;52.464;13.590;2023-08-07T10:59:19;2.40;;;1.52;;
71626;SDS011;59475;52.464;13.590;2023-08-07T11:05:06;4.55;;;1.70;;
71626;SDS011;59475;52.464;13.590;2023-08-07T11:07:32;2.27;;;1.30;;
71626;SDS011;59475;52.464;13.590;2023-08-07T11:13:19;4.25;;;1.02;;
71626;SDS011;59475;52.464;13.590;2023-08-07T11:19:07;1.88;;;1.27;;
71626;SDS011;59475;52.464;13.590;2023-08-07T11:24:55;3.95;;;1.60;;
71626;SDS011;59475;52.464;13.590;2023-08-07T11:27:21;2.57;;;1.50;;
71626;SDS011;59475;52.464;13.590;2023-08-07T11:33:08;2.28;;;1.70;;
71626;SDS011;59475;52.464;13.590;2023-08-07T11:35:34;4.03;;;1.50;;
71626;SDS011;59475;52.464;13.590;2023-08-07T11:41:21;4.88;;;1.63;;
71626;SDS011;59475;52.464;13.590;2023-08-07T11:47:09;2.40;;;1.52;;
71626;SDS011;59475;52.464;13.590;2023-08-07T11:49:35;4.63;;;1.48;;
71626;SDS011;59475;52.464;13.590;2023-08-07T11:55:22;3.20;;;1.70;;
71626;SDS011;59475;52.464;13.590;2023-08-07T11:57:48;4.07;;;1.40;;
71626;SDS011;59475;52.464;13.590;2023-08-07T12:00:14;2.55;;;1.65;;
71626;SDS011;59475;52.464;13.590;2023-08-07T12:02:43;3.53;;;1.80;;
71626;SDS011;59475;52.464;13.590;2023-08-07T12:05:09;2.45;;;1.60;;
71626;SDS011;59475;52.464;13.590;2023-08-07T12:07:38;2.55;;;1.70;;
71626;SDS011;59475;52.464;13.590;2023-08-07T12:10:06;4.28;;;1.95;;
71626;SDS011;59475;52.464;13.590;2023-08-07T12:12:36;2.17;;;1.47;;
71626;SDS011;59475;52.464;13.590;2023-08-07T12:15:03;3.13;;;1.30;;
71626;SDS011;59475;52.464;13.590;2023-08-07T12:17:37;5.30;;;1.75;;
71626;SDS011;59475;52.464;13.590;2023-08-07T12:20:05;2.60;;;1.67;;
71626;SDS011;59475;52.464;13.590;2023-08-07T12:22:36;2.88;;;1.40;;
71626;SDS011;59475;52.464;13.590;2023-08-07T12:25:02;2.53;;;1.30;;
71626;SDS011;59475;52.464;13.590;2023-08-07T12:27:28;3.27;;;1.63;;
71626;SDS011;59475;52.464;13.590;2023-08-07T12:33:15;3.80;;;1.73;;
71626;SDS011;59475;52.464;13.590;2023-08-07T12:35:40;4.67;;;1.40;;
71626;SDS011;59475;52.464;13.590;2023-08-07T12:38:06;2.47;;;1.70;;
71626;SDS011;59475;52.464;13.590;2023-08-07T12:40:33;5.82;;;1.70;;
71626;SDS011;59475;52.464;13.590;2023-08-07T12:43:01;6.93;;;2.13;;
71626;SDS011;59475;52.464;13.590;2023-08-07T12:45:26;2.42;;;1.80;;
71626;SDS011;59475;52.464;13.590;2023-08-07T12:47:52;2.73;;;1.70;;
71626;SDS011;59475;52.464;13.590;2023-08-07T12:53:39;3.03;;;1.90;;
71626;SDS011;59475;52.464;13.590;2023-08-07T12:56:04;3.67;;;1.60;;
71626;SDS011;59475;52.464;13.590;2023-08-07T12:58:30;3.08;;;1.83;;
71626;SDS011;59475;52.464;13.590;2023-08-07T13:04:18;5.38;;;2.05;;
71626;SDS011;59475;52.464;13.590;2023-08-07T13:06:43;4.20;;;1.53;;
71626;SDS011;59475;52.464;13.590;2023-08-07T13:09:09;7.13;;;1.65;;
71626;SDS011;59475;52.464;13.590;2023-08-07T13:11:34;3.53;;;1.50;;
71626;SDS011;59475;52.464;13.590;2023-08-07T13:13:59;4.90;;;1.63;;
71626;SDS011;59475;52.464;13.590;2023-08-07T13:16:25;6.00;;;2.13;;
71626;SDS011;59475;52.464;13.590;2023-08-07T13:18:50;5.60;;;2.00;;
71626;SDS011;59475;52.464;13.590;2023-08-07T13:21:16;5.43;;;2.03;;
71626;SDS011;59475;52.464;13.590;2023-08-07T13:23:41;3.33;;;1.80;;
71626;SDS011;59475;52.464;13.590;2023-08-07T13:29:28;7.40;;;2.50;;
71626;SDS011;59475;52.464;13.590;2023-08-07T13:31:54;6.07;;;2.25;;
71626;SDS011;59475;52.464;13.590;2023-08-07T13:34:20;5.10;;;1.73;;
71626;SDS011;59475;52.464;13.590;2023-08-07T13:36:46;7.03;;;2.20;;
71626;SDS011;59475;52.464;13.590;2023-08-07T13:39:12;8.43;;;2.20;;
71626;SDS011;59475;52.464;13.590;2023-08-07T13:41:38;5.53;;;2.07;;
71626;SDS011;59475;52.464;13.590;2023-08-07T13:44:04;4.35;;;1.65;;
71626;SDS011;59475;52.464;13.590;2023-08-07T13:46:29;4.33;;;1.83;;
71626;SDS011;59475;52.464;13.590;2023-08-07T13:48:55;4.83;;;1.80;;
71626;SDS011;59475;52.464;13.590;2023-08-07T13:54:42;5.53;;;1.83;;
71626;SDS011;59475;52.464;13.590;2023-08-07T13:57:07;10.52;;;2.22;;
71626;SDS011;59475;52.464;13.590;2023-08-07T13:59:32;5.33;;;1.80;;
71626;SDS011;59475;52.464;13.590;2023-08-07T14:01:58;4.20;;;2.00;;
71626;SDS011;59475;52.464;13.590;2023-08-07T14:07:45;3.47;;;1.92;;
71626;SDS011;59475;52.464;13.590;2023-08-07T14:10:11;7.47;;;1.60;;
71626;SDS011;59475;52.464;13.590;2023-08-07T14:12:36;3.40;;;1.53;;
71626;SDS011;59475;52.464;13.590;2023-08-07T14:15:02;3.03;;;1.50;;
71626;SDS011;59475;52.464;13.590;2023-08-07T14:17:27;4.72;;;1.55;;
71626;SDS011;59475;52.464;13.590;2023-08-07T14:19:52;3.70;;;1.20;;
71626;SDS011;59475;52.464;13.590;2023-08-07T14:22:18;7.60;;;1.97;;
71626;SDS011;59475;52.464;13.590;2023-08-07T14:24:43;4.87;;;1.77;;
71626;SDS011;59475;52.464;13.590;2023-08-07T14:27:09;6.73;;;1.90;;
71626;SDS011;59475;52.464;13.590;2023-08-07T14:29:34;4.63;;;1.55;;
71626;SDS011;59475;52.464;13.590;2023-08-07T14:32:00;6.67;;;1.63;;
71626;SDS011;59475;52.464;13.590;2023-08-07T14:34:25;3.43;;;1.83;;
71626;SDS011;59475;52.464;13.590;2023-08-07T14:40:12;7.93;;;2.40;;
71626;SDS011;59475;52.464;13.590;2023-08-07T14:42:38;6.88;;;1.73;;
71626;SDS011;59475;52.464;13.590;2023-08-07T14:45:04;3.70;;;1.40;;
71626;SDS011;59475;52.464;13.590;2023-08-07T14:47:30;6.18;;;1.65;;
71626;SDS011;59475;52.464;13.590;2023-08-07T14:49:55;8.87;;;2.40;;
71626;SDS011;59475;52.464;13.590;2023-08-07T14:52:20;5.40;;;1.77;;
71626;SDS011;59475;52.464;13.590;2023-08-07T14:58:08;4.40;;;1.42;;
71626;SDS011;59475;52.464;13.590;2023-08-07T15:00:34;5.60;;;1.63;;
71626;SDS011;59475;52.464;13.590;2023-08-07T15:03:00;6.07;;;1.58;;
71626;SDS011;59475;52.464;13.590;2023-08-07T15:05:27;4.35;;;1.63;;
71626;SDS011;59475;52.464;13.590;2023-08-07T15:11:14;4.85;;;1.90;;
71626;SDS011;59475;52.464;13.590;2023-08-07T15:13:39;5.87;;;1.90;;
71626;SDS011;59475;52.464;13.590;2023-08-07T15:16:05;5.68;;;1.60;;
71626;SDS011;59475;52.464;13.590;2023-08-07T15:18:31;10.07;;;1.83;;
71626;SDS011;59475;52.464;13.590;2023-08-07T15:24:31;4.90;;;1.40;;
71626;SDS011;59475;52.464;13.590;2023-08-07T15:26:56;2.73;;;1.30;;
71626;SDS011;59475;52.464;13.590;2023-08-07T15:29:22;5.70;;;1.42;;
71626;SDS011;59475;52.464;13.590;2023-08-07T15:31:47;8.53;;;1.97;;
71626;SDS011;59475;52.464;13.590;2023-08-07T15:34:13;5.53;;;1.70;;
71626;SDS011;59475;52.464;13.590;2023-08-07T15:40:00;3.47;;;1.73;;
71626;SDS011;59475;52.464;13.590;2023-08-07T15:42:25;7.68;;;1.83;;
71626;SDS011;59475;52.464;13.590;2023-08-07T15:44:51;5.27;;;1.70;;
71626;SDS011;59475;52.464;13.590;2023-08-07T15:47:16;6.30;;;2.00;;
71626;SDS011;59475;52.464;13.590;2023-08-07T15:49:42;5.70;;;2.07;;
71626;SDS011;59475;52.464;13.590;2023-08-07T15:52:09;7.68;;;1.70;;
71626;SDS011;59475;52.464;13.590;2023-08-07T15:54:35;7.47;;;2.10;;
71626;SDS011;59475;52.464;13.590;2023-08-07T16:00:22;4.47;;;1.70;;
71626;SDS011;59475;52.464;13.590;2023-08-07T16:02:47;4.80;;;1.50;;
71626;SDS011;59475;52.464;13.590;2023-08-07T16:08:35;7.60;;;1.83;;
71626;SDS011;59475;52.464;13.590;2023-08-07T16:11:00;4.07;;;1.70;;
71626;SDS011;59475;52.464;13.590;2023-08-07T16:16:49;8.48;;;2.13;;
71626;SDS011;59475;52.464;13.590;2023-08-07T16:19:16;6.00;;;1.83;;
71626;SDS011;59475;52.464;13.590;2023-08-07T16:25:03;3.55;;;1.73;;
71626;SDS011;59475;52.464;13.590;2023-08-07T16:27:31;6.88;;;2.00;;
71626;SDS011;59475;52.464;13.590;2023-08-07T16:29:57;11.93;;;2.07;;
71626;SDS011;59475;52.464;13.590;2023-08-07T16:32:37;5.15;;;1.70;;
71626;SDS011;59475;52.464;13.590;2023-08-07T16:35:04;4.68;;;2.00;;
71626;SDS011;59475;52.464;13.590;2023-08-07T16:40:51;7.18;;;1.92;;
71626;SDS011;59475;52.464;13.590;2023-08-07T16:43:17;10.80;;;1.57;;
71626;SDS011;59475;52.464;13.590;2023-08-07T16:45:42;5.10;;;1.90;;
71626;SDS011;59475;52.464;13.590;2023-08-07T16:48:08;7.80;;;1.67;;
71626;SDS011;59475;52.464;13.590;2023-08-07T16:50:33;5.65;;;1.73;;
71626;SDS011;59475;52.464;13.590;2023-08-07T16:52:58;5.47;;;1.30;;
71626;SDS011;59475;52.464;13.590;2023-08-07T16:55:25;4.80;;;1.63;;
71626;SDS011;59475;52.464;13.590;2023-08-07T17:01:11;5.07;;;1.80;;
71626;SDS011;59475;52.464;13.590;2023-08-07T17:03:37;7.60;;;1.80;;
71626;SDS011;59475;52.464;13.590;2023-08-07T17:06:02;3.57;;;1.50;;